createdAt,value
2019-05-17T00:01:37.122Z,8.00
2019-05-17T00:04:43.312Z,7.90
2019-05-17T00:07:50.274Z,7.80
2019-05-17T00:10:57.257Z,7.60
2019-05-17T00:14:06.304Z,7.60
2019-05-17T00:17:13.006Z,7.40
2019-05-17T00:20:20.017Z,7.40
2019-05-17T00:23:27.065Z,7.40
2019-05-17T00:26:36.238Z,7.40
2019-05-17T00:29:42.689Z,7.50
2019-05-17T00:32:49.692Z,7.60
2019-05-17T00:35:56.667Z,7.60
2019-05-17T00:39:07.365Z,7.70
2019-05-17T00:42:13.960Z,7.80
2019-05-17T00:45:20.909Z,7.70
2019-05-17T00:48:27.897Z,7.80
2019-05-17T00:51:36.732Z,7.90
2019-05-17T00:54:43.455Z,7.90
2019-05-17T00:57:50.422Z,7.90
2019-05-17T01:00:57.407Z,7.90
2019-05-17T01:04:06.670Z,7.80
2019-05-17T01:07:13.008Z,7.80
2019-05-17T01:10:20.071Z,7.80
2019-05-17T01:13:27.095Z,7.80
2019-05-17T01:16:34.072Z,7.80
2019-05-17T01:19:41.099Z,7.80
2019-05-17T01:22:48.115Z,7.80
2019-05-17T01:25:56.670Z,7.90
2019-05-17T01:29:03.903Z,7.90
2019-05-17T01:32:10.858Z,7.80
2019-05-17T01:35:17.879Z,7.70
2019-05-17T01:38:26.970Z,7.80
2019-05-17T01:41:33.464Z,7.80
2019-05-17T01:44:40.437Z,7.90
2019-05-17T01:47:47.674Z,7.90
2019-05-17T01:50:56.666Z,8.00
2019-05-17T01:54:03.271Z,8.00
2019-05-17T01:57:10.299Z,8.00
2019-05-17T02:00:17.895Z,8.00
2019-05-17T02:03:26.787Z,7.80
2019-05-17T02:06:33.530Z,7.90
2019-05-17T02:09:41.829Z,8.00
2019-05-17T02:12:49.305Z,8.00
2019-05-17T02:15:56.532Z,8.00
2019-05-17T02:19:03.566Z,8.10
2019-05-17T02:22:10.567Z,8.10
2019-05-17T02:25:17.893Z,8.20
2019-05-17T02:28:24.920Z,8.10
2019-05-17T02:31:32.820Z,8.10
2019-05-17T02:34:42.819Z,8.10
2019-05-17T02:37:48.539Z,8.10
2019-05-17T02:40:55.572Z,8.10
2019-05-17T02:44:02.658Z,7.90
2019-05-17T02:47:09.595Z,7.90
2019-05-17T02:50:18.198Z,7.70
2019-05-17T02:53:25.255Z,7.60
2019-05-17T02:56:32.873Z,7.60
2019-05-17T02:59:43.145Z,7.80
2019-05-17T03:02:48.477Z,8.00
2019-05-17T03:05:55.473Z,8.00
2019-05-17T03:09:03.323Z,8.10
2019-05-17T03:12:12.877Z,8.10
2019-05-17T03:15:19.284Z,8.00
2019-05-17T03:18:26.310Z,8.10
2019-05-17T03:21:33.905Z,8.10
2019-05-17T03:24:43.669Z,7.90
2019-05-17T03:27:49.695Z,7.80
2019-05-17T03:30:57.169Z,7.90
2019-05-17T03:34:06.560Z,7.90
2019-05-17T03:37:16.264Z,7.90
2019-05-17T03:40:36.343Z,7.90
2019-05-17T03:43:30.528Z,8.00
2019-05-17T03:46:37.525Z,8.10
2019-05-17T03:49:44.524Z,8.10
2019-05-17T03:52:53.507Z,8.10
2019-05-17T03:56:03.024Z,8.00
2019-05-17T03:59:08.813Z,8.00
2019-05-17T04:02:15.797Z,7.90
2019-05-17T04:05:22.931Z,7.90
2019-05-17T04:08:33.164Z,7.90
2019-05-17T04:11:38.501Z,7.90
2019-05-17T04:14:45.514Z,7.90
2019-05-17T04:17:54.439Z,7.90
2019-05-17T04:21:03.433Z,8.00
2019-05-17T04:24:12.636Z,8.00
2019-05-17T04:27:18.796Z,8.10
2019-05-17T04:30:25.785Z,8.00
2019-05-17T04:33:33.670Z,8.00
2019-05-17T04:36:43.205Z,7.90
2019-05-17T04:39:52.505Z,7.90
2019-05-17T04:42:59.081Z,7.80
2019-05-17T04:46:06.065Z,7.90
2019-05-17T04:49:13.847Z,8.10
2019-05-17T04:52:22.804Z,8.10
2019-05-17T04:55:29.742Z,8.10
2019-05-17T04:58:36.756Z,8.00
2019-05-17T05:01:43.857Z,8.00
2019-05-17T05:04:53.357Z,8.00
2019-05-17T05:08:02.639Z,8.20
2019-05-17T05:11:08.078Z,8.20
2019-05-17T05:14:15.053Z,8.30
2019-05-17T05:17:22.247Z,8.20
2019-05-17T05:20:29.219Z,8.20
2019-05-17T05:23:36.217Z,8.00
2019-05-17T05:26:43.224Z,8.00
2019-05-17T05:29:52.056Z,8.20
2019-05-17T05:32:58.841Z,8.30
2019-05-17T05:36:05.852Z,8.40
2019-05-17T05:39:12.856Z,8.50
2019-05-17T05:42:21.995Z,8.60
2019-05-17T05:45:28.459Z,8.70
2019-05-17T05:48:35.443Z,8.70
2019-05-17T05:51:42.638Z,8.70
2019-05-17T05:54:51.928Z,8.80
2019-05-17T05:57:58.265Z,9.00
2019-05-17T06:01:06.442Z,9.10
2019-05-17T06:04:13.439Z,9.00
2019-05-17T06:07:21.667Z,9.00
2019-05-17T06:10:28.679Z,9.10
2019-05-17T06:13:35.685Z,9.10
2019-05-17T06:16:42.725Z,9.20
2019-05-17T06:19:51.566Z,9.10
2019-05-17T06:22:58.357Z,9.20
2019-05-17T06:26:05.390Z,9.20
2019-05-17T06:29:12.367Z,9.10
2019-05-17T06:32:19.389Z,9.30
2019-05-17T06:35:26.388Z,9.40
2019-05-17T06:38:33.411Z,9.20
2019-05-17T06:41:41.964Z,9.20
2019-05-17T06:44:49.119Z,9.50
2019-05-17T06:47:56.065Z,9.70
2019-05-17T06:51:03.044Z,9.80
2019-05-17T06:54:11.913Z,10.00
2019-05-17T06:57:18.622Z,10.00
2019-05-17T07:00:25.829Z,10.10
2019-05-17T07:03:32.828Z,10.20
2019-05-17T07:06:40.514Z,10.60
2019-05-17T07:09:49.668Z,10.80
2019-05-17T07:12:59.658Z,11.10
2019-05-17T07:16:04.954Z,11.20
2019-05-17T07:19:11.970Z,11.50
2019-05-17T07:22:21.014Z,11.70
2019-05-17T07:25:27.730Z,12.10
2019-05-17T07:28:34.784Z,12.00
2019-05-17T07:31:41.751Z,12.10
2019-05-17T07:34:50.744Z,12.00
2019-05-17T07:37:59.381Z,11.70
2019-05-17T07:41:05.979Z,12.20
2019-05-17T07:44:12.946Z,12.10
2019-05-17T07:47:20.377Z,12.50
2019-05-17T07:50:29.268Z,12.70
2019-05-17T07:53:35.998Z,12.90
2019-05-17T07:56:42.989Z,13.20
2019-05-17T07:59:50.886Z,13.20
2019-05-17T08:02:59.959Z,13.10
2019-05-17T08:06:06.594Z,13.40
2019-05-17T08:09:14.242Z,13.70
2019-05-17T08:12:21.284Z,13.70
2019-05-17T08:15:30.341Z,13.30
2019-05-17T08:18:36.866Z,13.30
2019-05-17T08:21:43.896Z,13.20
2019-05-17T08:24:50.866Z,13.10
2019-05-17T08:27:59.521Z,13.10
2019-05-17T08:31:06.593Z,13.10
2019-05-17T08:34:13.622Z,13.00
2019-05-17T08:37:20.606Z,13.00
2019-05-17T08:40:27.571Z,12.80
2019-05-17T08:43:42.631Z,12.90
2019-05-17T08:46:43.177Z,12.90
2019-05-17T08:49:50.194Z,13.20
2019-05-17T08:52:57.191Z,13.10
2019-05-17T08:56:04.173Z,13.10
2019-05-17T08:59:11.168Z,13.20
2019-05-17T09:02:19.862Z,13.40
2019-05-17T09:05:26.977Z,13.10
2019-05-17T09:08:33.983Z,13.70
2019-05-17T09:11:40.968Z,14.20
2019-05-17T09:14:49.650Z,14.20
2019-05-17T09:17:56.799Z,13.80
2019-05-17T09:21:03.814Z,14.00
2019-05-17T09:24:10.815Z,14.00
2019-05-17T09:27:19.791Z,14.20
2019-05-17T09:30:26.579Z,14.20
2019-05-17T09:33:33.571Z,14.40
2019-05-17T09:36:40.946Z,14.30
2019-05-17T09:39:49.280Z,14.20
2019-05-17T09:42:56.435Z,14.40
2019-05-17T09:46:03.486Z,14.30
2019-05-17T09:49:10.627Z,13.80
2019-05-17T09:52:19.845Z,13.60
2019-05-17T09:55:26.217Z,13.80
2019-05-17T09:58:33.265Z,14.10
2019-05-17T10:01:40.263Z,14.10
2019-05-17T10:04:47.279Z,14.10
2019-05-17T10:07:54.259Z,14.20
2019-05-17T10:11:08.340Z,13.90
2019-05-17T10:14:11.507Z,14.40
2019-05-17T10:17:21.024Z,14.60
2019-05-17T10:20:29.136Z,15.00
2019-05-17T10:23:35.805Z,15.40
2019-05-17T10:26:42.914Z,15.20
2019-05-17T10:29:50.211Z,14.50
2019-05-17T10:32:59.795Z,15.00
2019-05-17T10:36:05.771Z,15.90
2019-05-17T10:39:12.747Z,16.30
2019-05-17T10:42:21.018Z,17.00
2019-05-17T10:45:30.342Z,17.40
2019-05-17T10:48:36.614Z,17.10
2019-05-17T10:51:43.608Z,17.40
2019-05-17T10:54:50.620Z,17.10
2019-05-17T10:57:57.597Z,16.60
2019-05-17T11:01:04.557Z,15.70
2019-05-17T11:04:11.570Z,15.60
2019-05-17T11:07:19.948Z,15.30
2019-05-17T11:10:27.039Z,14.90
2019-05-17T11:13:34.047Z,14.70
2019-05-17T11:16:41.027Z,14.90
2019-05-17T11:19:48.021Z,14.60
2019-05-17T11:22:55.007Z,13.90
2019-05-17T11:26:02.033Z,13.80
2019-05-17T11:29:09.047Z,13.40
2019-05-17T11:32:16.156Z,13.30
2019-05-17T11:35:24.785Z,13.40
2019-05-17T11:38:31.871Z,13.50
2019-05-17T11:41:38.844Z,13.70
2019-05-17T11:44:45.834Z,13.90
2019-05-17T11:47:52.808Z,14.20
2019-05-17T11:50:59.751Z,14.60
2019-05-17T11:54:06.767Z,14.80
2019-05-17T11:57:13.750Z,15.10
2019-05-17T12:00:21.033Z,15.30
2019-05-17T12:03:28.059Z,16.00
2019-05-17T12:06:35.059Z,16.50
2019-05-17T12:09:42.089Z,16.60
2019-05-17T12:12:49.047Z,16.90
2019-05-17T12:15:56.096Z,17.10
2019-05-17T12:19:03.129Z,17.10
2019-05-17T12:22:10.117Z,17.30
2019-05-17T12:25:17.280Z,17.10
2019-05-17T12:28:24.248Z,16.90
2019-05-17T12:31:31.219Z,16.20
2019-05-17T12:34:38.179Z,15.70
2019-05-17T12:37:45.180Z,15.60
2019-05-17T12:40:52.131Z,15.40
2019-05-17T12:43:59.110Z,15.70
2019-05-17T12:47:06.187Z,16.10
2019-05-17T12:50:13.268Z,16.30
2019-05-17T12:53:20.251Z,16.50
2019-05-17T12:56:27.265Z,16.80
2019-05-17T12:59:34.256Z,16.70
2019-05-17T13:02:41.312Z,16.60
2019-05-17T13:05:48.268Z,16.40
2019-05-17T13:08:55.258Z,16.40
2019-05-17T13:12:02.307Z,16.70
2019-05-17T13:15:09.631Z,17.00
2019-05-17T13:18:16.653Z,16.80
2019-05-17T13:21:23.634Z,16.50
2019-05-17T13:24:30.606Z,16.70
2019-05-17T13:27:39.321Z,16.70
2019-05-17T13:30:46.543Z,16.90
2019-05-17T13:33:53.500Z,16.90
2019-05-17T13:37:00.508Z,17.00
2019-05-17T13:40:07.696Z,17.10
2019-05-17T13:43:14.670Z,16.50
2019-05-17T13:46:32.811Z,16.90
2019-05-17T13:49:30.283Z,17.00
2019-05-17T13:52:37.271Z,16.90
2019-05-17T13:55:44.224Z,16.40
2019-05-17T13:58:51.218Z,16.30
2019-05-17T14:01:58.211Z,16.30
2019-05-17T14:05:05.450Z,16.50
2019-05-17T14:08:12.402Z,16.70
2019-05-17T14:11:19.382Z,16.40
2019-05-17T14:14:26.412Z,16.20
2019-05-17T14:17:33.353Z,16.30
2019-05-17T14:20:40.439Z,16.10
2019-05-17T14:23:47.422Z,16.30
2019-05-17T14:26:54.522Z,15.70
2019-05-17T14:30:01.492Z,15.60
2019-05-17T14:33:08.461Z,15.60
2019-05-17T14:36:15.459Z,15.60
2019-05-17T14:39:22.437Z,15.60
2019-05-17T14:42:29.439Z,15.60
2019-05-17T14:45:36.405Z,15.50
2019-05-17T14:48:43.412Z,15.60
2019-05-17T14:51:50.350Z,15.80
2019-05-17T14:54:57.318Z,16.00
2019-05-17T14:58:04.401Z,16.10
2019-05-17T15:01:11.351Z,16.10
2019-05-17T15:04:18.310Z,15.90
2019-05-17T15:07:25.302Z,16.00
2019-05-17T15:10:32.352Z,16.00
2019-05-17T15:13:39.334Z,15.80
2019-05-17T15:16:46.335Z,15.70
2019-05-17T15:19:53.319Z,15.60
2019-05-17T15:23:00.379Z,15.60
2019-05-17T15:26:07.390Z,15.80
2019-05-17T15:29:14.385Z,15.90
2019-05-17T15:32:21.374Z,16.00
2019-05-17T15:35:28.555Z,16.10
2019-05-17T15:38:35.595Z,16.20
2019-05-17T15:41:42.579Z,16.20
2019-05-17T15:44:49.516Z,16.40
2019-05-17T15:47:56.508Z,16.30
2019-05-17T15:51:03.738Z,15.90
2019-05-17T15:54:10.800Z,15.70
2019-05-17T15:57:17.791Z,15.60
2019-05-17T16:00:26.267Z,15.30
2019-05-17T16:03:36.366Z,15.20
2019-05-17T16:06:43.457Z,15.30
2019-05-17T16:09:50.420Z,15.50
2019-05-17T16:13:02.543Z,15.40
2019-05-17T16:16:06.199Z,15.50
2019-05-17T16:19:13.195Z,15.40
2019-05-17T16:22:20.209Z,15.40
2019-05-17T16:25:27.237Z,15.40
2019-05-17T16:28:39.758Z,15.40
2019-05-17T16:31:46.769Z,15.40
2019-05-17T16:34:53.735Z,15.50
2019-05-17T16:38:00.705Z,15.50
2019-05-17T16:41:07.659Z,15.60
2019-05-17T16:44:14.837Z,15.60
2019-05-17T16:47:21.868Z,15.50
2019-05-17T16:50:28.846Z,15.40
2019-05-17T16:53:35.857Z,15.40
2019-05-17T16:56:42.853Z,15.40
2019-05-17T16:59:49.892Z,15.50
2019-05-17T17:02:57.239Z,15.50
2019-05-17T17:06:04.412Z,15.40
2019-05-17T17:09:11.357Z,15.40
2019-05-17T17:12:18.353Z,15.50
2019-05-17T17:15:25.346Z,15.50
2019-05-17T17:18:32.306Z,15.60
2019-05-17T17:21:39.301Z,15.40
2019-05-17T17:24:46.307Z,15.40
2019-05-17T17:27:54.349Z,15.40
2019-05-17T17:31:01.318Z,15.30
2019-05-17T17:34:08.310Z,15.40
2019-05-17T17:37:15.282Z,15.40
2019-05-17T17:40:22.804Z,15.40
2019-05-17T17:43:29.770Z,15.30
2019-05-17T17:46:36.729Z,15.40
2019-05-17T17:49:43.739Z,15.30
2019-05-17T17:52:51.981Z,15.20
2019-05-17T17:55:58.963Z,15.10
2019-05-17T17:59:05.970Z,15.00
2019-05-17T18:02:12.995Z,14.90
2019-05-17T18:05:20.027Z,14.90
2019-05-17T18:08:27.090Z,14.90
2019-05-17T18:11:34.102Z,14.80
2019-05-17T18:14:41.087Z,14.70
2019-05-17T18:17:49.002Z,14.60
2019-05-17T18:20:56.045Z,14.50
2019-05-17T18:24:03.109Z,14.40
2019-05-17T18:27:10.338Z,14.30
2019-05-17T18:30:18.665Z,14.20
2019-05-17T18:33:25.691Z,14.20
2019-05-17T18:36:32.661Z,14.20
2019-05-17T18:39:39.702Z,14.10
2019-05-17T18:42:46.697Z,14.00
2019-05-17T18:45:53.674Z,14.00
2019-05-17T18:49:00.679Z,13.90
2019-05-17T18:52:07.727Z,13.80
2019-05-17T18:55:14.755Z,13.80
2019-05-17T18:58:21.756Z,13.70
2019-05-17T19:01:28.780Z,13.70
2019-05-17T19:04:35.808Z,13.80
2019-05-17T19:07:42.835Z,13.80
2019-05-17T19:10:49.846Z,13.80
2019-05-17T19:13:56.929Z,13.80
2019-05-17T19:17:04.011Z,13.70
2019-05-17T19:20:12.689Z,13.60
2019-05-17T19:23:19.695Z,13.60
2019-05-17T19:26:26.785Z,13.50
2019-05-17T19:29:33.769Z,13.40
2019-05-17T19:32:40.818Z,13.40
2019-05-17T19:35:47.828Z,13.30
2019-05-17T19:38:54.821Z,13.20
2019-05-17T19:42:01.860Z,13.10
2019-05-17T19:45:09.379Z,12.90
2019-05-17T19:48:19.296Z,12.70
2019-05-17T19:51:25.065Z,12.60
2019-05-17T19:54:50.678Z,12.40
2019-05-17T19:57:57.663Z,12.40
2019-05-17T20:01:04.623Z,12.20
2019-05-17T20:04:11.700Z,12.10
2019-05-17T20:07:18.682Z,12.00
2019-05-17T20:10:25.684Z,11.90
2019-05-17T20:13:32.757Z,11.70
2019-05-17T20:16:39.740Z,11.50
2019-05-17T20:19:46.864Z,11.40
2019-05-17T20:22:53.990Z,11.40
2019-05-17T20:26:01.844Z,11.30
2019-05-17T20:29:10.865Z,11.30
2019-05-17T20:32:17.611Z,11.20
2019-05-17T20:35:24.676Z,11.10
2019-05-17T20:38:34.683Z,11.10
2019-05-17T20:41:41.710Z,11.00
2019-05-17T20:44:48.709Z,11.00
2019-05-17T20:47:55.701Z,10.90
2019-05-17T20:51:02.695Z,10.70
2019-05-17T20:54:09.659Z,10.60
2019-05-17T20:57:16.654Z,10.60
2019-05-17T21:00:23.669Z,10.60
2019-05-17T21:03:31.589Z,10.60
2019-05-17T21:06:38.609Z,10.40
2019-05-17T21:09:45.587Z,10.20
2019-05-17T21:12:52.701Z,10.00
2019-05-17T21:15:59.700Z,10.00
2019-05-17T21:19:06.701Z,10.00
2019-05-17T21:22:13.708Z,9.90
2019-05-17T21:25:20.721Z,10.00
2019-05-17T21:28:28.625Z,9.80
2019-05-17T21:31:35.641Z,9.80
2019-05-17T21:34:42.642Z,9.90
2019-05-17T21:37:49.644Z,9.90
2019-05-17T21:40:56.643Z,9.80
2019-05-17T21:44:03.718Z,9.80
2019-05-17T21:47:10.741Z,9.80
2019-05-17T21:50:17.812Z,9.70
2019-05-17T21:53:24.798Z,9.70
2019-05-17T21:56:31.790Z,9.60
2019-05-17T21:59:38.823Z,9.50
2019-05-17T22:02:45.803Z,9.40
2019-05-17T22:05:52.827Z,9.40
2019-05-17T22:09:00.126Z,9.30
2019-05-17T22:12:09.999Z,9.20
2019-05-17T22:15:17.024Z,9.20
2019-05-17T22:18:24.009Z,9.20
2019-05-17T22:21:31.028Z,9.10
2019-05-17T22:24:38.042Z,8.90
2019-05-17T22:27:45.094Z,8.80
2019-05-17T22:30:52.064Z,8.70
2019-05-17T22:33:59.183Z,8.60
2019-05-17T22:37:06.184Z,8.50
2019-05-17T22:40:13.339Z,8.60
2019-05-17T22:43:20.332Z,8.70
2019-05-17T22:46:35.722Z,8.70
2019-05-17T22:49:35.967Z,8.70
2019-05-17T22:52:42.941Z,8.70
2019-05-17T22:55:49.953Z,8.60
2019-05-17T22:58:56.907Z,8.50
2019-05-17T23:02:03.903Z,8.50
2019-05-17T23:05:10.940Z,8.50
2019-05-17T23:08:17.983Z,8.40
2019-05-17T23:11:25.171Z,8.20
2019-05-17T23:14:32.234Z,8.10
2019-05-17T23:17:39.274Z,8.10
2019-05-17T23:20:46.253Z,8.00
2019-05-17T23:23:53.413Z,8.00
2019-05-17T23:27:00.515Z,7.90
2019-05-17T23:30:08.685Z,7.90
2019-05-17T23:33:15.663Z,7.90
2019-05-17T23:36:22.701Z,7.80
2019-05-17T23:39:29.787Z,7.80
2019-05-17T23:42:36.753Z,7.70
2019-05-17T23:45:43.767Z,7.60
2019-05-17T23:48:50.742Z,7.60
2019-05-17T23:51:57.760Z,7.60
2019-05-17T23:55:05.337Z,7.60
2019-05-17T23:58:12.351Z,7.50
